Time;durP1;ratioP1;P1;durP2;ratioP2;P2;SDS_P1;SDS_P2;PMS_P1;PMS_P2;Temp;Humidity;BMP_temperature;BMP_pressure;BME280_temperature;BME280_humidity;BME280_pressure;Samples;Min_cycle;Max_cycle;Signal;HPM_P1;HPM_P2
2023/07/03 00:01:26;;;;;;;9.80;7.40;;;22.20;99.90;;;;;;5959011;24;20034;-93
2023/07/03 00:04:04;;;;;;;10.88;6.63;;;22.20;99.90;;;;;;5959098;24;20012;-91
2023/07/03 00:06:49;;;;;;;10.50;7.45;;;22.20;99.90;;;;;;5959809;24;20016;-92
2023/07/03 00:09:31;;;;;;;8.82;6.45;;;22.10;99.90;;;;;;5959296;24;20019;-93
2023/07/03 00:12:52;;;;;;;13.57;7.65;;;22.10;99.90;;;;;;5962555;24;20027;-92
2023/07/03 00:15:30;;;;;;;10.80;7.18;;;22.10;99.90;;;;;;5931625;24;20008;-91
2023/07/03 00:18:48;;;;;;;12.80;6.93;;;22.10;99.90;;;;;;5959548;24;20004;-91
2023/07/03 00:21:43;;;;;;;8.05;6.43;;;22.10;99.90;;;;;;5982806;24;20064;-92
2023/07/03 00:24:13;;;;;;;13.63;6.87;;;22.10;99.90;;;;;;5959041;24;20068;-92
2023/07/03 00:27:22;;;;;;;;;;;;;;;;;;;;;
2023/07/03 00:31:19;;;;;;;;;;;;;;;;;;;;;
2023/07/03 00:39:25;;;;;;;;;;;;;;;;;;;;;
2023/07/03 00:51:15;;;;;;;;;;;;;;;;;;;;;
2023/07/03 01:18:48;;;;;;;;;;;;;;;;;;;;;
2023/07/03 01:51:16;;;;;;;8.80;6.35;;;21.10;99.90;;;;;;6052698;23;20461;-93
2023/07/03 03:01:05;;;;;;;;;;;;;;;;;;;;;
2023/07/03 03:41:53;;;;;;;9.77;5.78;;;20.40;99.90;;;;;;5174284;27;20399;-94
2023/07/03 03:44:26;;;;;;;12.32;5.63;;;20.50;99.90;;;;;;5117922;27;20023;-93
2023/07/03 03:46:56;;;;;;;12.43;6.40;;;20.50;99.90;;;;;;5097470;28;20030;-93
2023/07/03 03:49:26;;;;;;;12.93;7.63;;;20.50;99.90;;;;;;5087563;28;20020;-93
2023/07/03 03:51:55;;;;;;;11.48;6.18;;;20.50;99.90;;;;;;5077738;28;20054;-92
2023/07/03 03:54:42;;;;;;;10.10;6.35;;;20.60;99.90;;;;;;5078395;28;20024;-93
2023/07/03 03:57:16;;;;;;;11.48;6.28;;;20.60;99.90;;;;;;5079601;28;20032;-92
2023/07/03 03:59:43;;;;;;;9.05;6.00;;;20.70;99.90;;;;;;5089421;28;20067;-93
2023/07/03 04:02:11;;;;;;;11.95;7.32;;;20.70;99.90;;;;;;5077345;28;20477;-92
2023/07/03 04:04:41;;;;;;;12.80;6.55;;;20.80;99.90;;;;;;5077360;28;20106;-92
2023/07/03 04:07:08;;;;;;;12.98;7.05;;;20.90;99.90;;;;;;5077070;28;20028;-94
2023/07/03 04:09:41;;;;;;;15.10;7.88;;;20.90;99.90;;;;;;5076835;28;20081;-93
2023/07/03 04:12:08;;;;;;;11.98;7.25;;;20.90;99.90;;;;;;5077375;28;20038;-93
2023/07/03 04:14:38;;;;;;;10.07;7.22;;;20.90;99.90;;;;;;5077020;28;20020;-95
2023/07/03 04:17:08;;;;;;;14.48;7.40;;;20.90;99.90;;;;;;5077426;28;20028;-92
2023/07/03 04:19:36;;;;;;;13.93;7.78;;;21.00;99.90;;;;;;5077121;28;20028;-94
2023/07/03 04:22:02;;;;;;;10.25;7.70;;;21.00;99.90;;;;;;5076962;28;20110;-93
2023/07/03 04:24:29;;;;;;;11.02;7.20;;;21.00;99.90;;;;;;5076807;28;20031;-92
2023/07/03 04:26:58;;;;;;;13.18;6.93;;;21.10;99.90;;;;;;5076840;28;20473;-92
2023/07/03 04:29:25;;;;;;;12.05;7.95;;;21.10;99.90;;;;;;5076637;28;20043;-94
2023/07/03 04:31:52;;;;;;;14.45;8.27;;;21.20;99.90;;;;;;5076874;28;20065;-94
2023/07/03 04:34:22;;;;;;;13.68;7.95;;;21.20;99.90;;;;;;5076665;28;20111;-93
2023/07/03 04:36:49;;;;;;;12.38;7.43;;;21.30;99.90;;;;;;5077257;28;20077;-95
2023/07/03 04:39:23;;;;;;;10.48;8.38;;;21.40;99.90;;;;;;5077013;28;20032;-92
2023/07/03 04:42:00;;;;;;;14.65;9.65;;;21.60;99.90;;;;;;5076019;28;20059;-92
2023/07/03 04:44:33;;;;;;;12.50;9.07;;;21.90;99.90;;;;;;5076762;28;20027;-93
2023/07/03 04:47:05;;;;;;;14.32;8.55;;;22.20;99.90;;;;;;5076777;28;20059;-93
2023/07/03 04:49:33;;;;;;;11.77;10.23;;;22.80;99.90;;;;;;5076202;28;20119;-93
2023/07/03 04:52:05;;;;;;;18.42;13.73;;;23.60;99.90;;;;;;5087449;28;20028;-92
2023/07/03 04:54:39;;;;;;;17.98;16.25;;;24.80;99.90;;;;;;5079484;28;20031;-94
2023/07/03 04:57:18;;;;;;;18.58;16.75;;;26.00;99.90;;;;;;5081486;28;20038;-94
2023/07/03 04:59:54;;;;;;;17.75;16.20;;;26.90;99.90;;;;;;5079256;28;20469;-93
2023/07/03 05:02:29;;;;;;;19.58;17.55;;;27.90;99.90;;;;;;5063742;28;20074;-94
2023/07/03 05:05:13;;;;;;;20.92;19.13;;;28.50;99.90;;;;;;5061860;28;20040;-94
2023/07/03 05:07:41;;;;;;;20.95;19.05;;;29.40;99.90;;;;;;5062303;28;20043;-93
2023/07/03 05:10:20;;;;;;;20.75;18.90;;;30.80;99.90;;;;;;5063186;28;20024;-93
2023/07/03 05:12:51;;;;;;;22.77;20.65;;;31.00;99.90;;;;;;5018775;28;20037;-93
2023/07/03 05:15:24;;;;;;;22.27;20.38;;;31.40;99.90;;;;;;5002953;28;20034;-94
2023/07/03 05:18:03;;;;;;;22.27;20.48;;;30.70;99.90;;;;;;5004365;28;20033;-93
2023/07/03 05:20:34;;;;;;;26.17;22.42;;;30.60;99.90;;;;;;5044970;28;20451;-93
2023/07/03 05:23:03;;;;;;;24.98;22.55;;;30.90;99.90;;;;;;5018893;28;20047;-93
2023/07/03 05:25:33;;;;;;;25.85;23.20;;;31.10;99.90;;;;;;5004222;28;20083;-93
2023/07/03 05:27:59;;;;;;;25.30;23.17;;;31.20;99.90;;;;;;5002230;28;20032;-93
2023/07/03 05:30:28;;;;;;;25.50;22.98;;;31.50;99.90;;;;;;5001989;28;20040;-93
2023/07/03 05:33:07;;;;;;;25.40;23.40;;;31.50;99.90;;;;;;5002047;28;20038;-94
2023/07/03 05:35:37;;;;;;;24.52;22.75;;;31.60;99.90;;;;;;5002177;28;20087;-94
2023/07/03 05:38:07;;;;;;;24.10;22.20;;;32.00;99.90;;;;;;5002483;28;20033;-94
2023/07/03 05:40:34;;;;;;;23.90;21.98;;;32.50;99.90;;;;;;5002798;28;20045;-92
2023/07/03 05:43:04;;;;;;;22.45;20.70;;;32.90;99.90;;;;;;5018381;28;20041;-93
2023/07/03 05:45:30;;;;;;;21.73;20.23;;;32.80;99.90;;;;;;5017788;28;20029;-94
2023/07/03 05:47:57;;;;;;;22.63;20.90;;;32.00;99.90;;;;;;5001350;28;20025;-93
2023/07/03 05:50:24;;;;;;;22.75;20.88;;;31.30;99.90;;;;;;5064442;28;20119;-93
2023/07/03 05:52:50;;;;;;;21.77;19.98;;;31.10;99.90;;;;;;5078389;28;20059;-94
2023/07/03 05:55:17;;;;;;;21.42;19.85;;;30.90;99.90;;;;;;5078346;28;20057;-94
2023/07/03 05:57:44;;;;;;;21.67;19.92;;;31.30;99.90;;;;;;5078515;28;20032;-93
2023/07/03 06:00:15;;;;;;;21.33;19.67;;;30.60;99.90;;;;;;5078237;28;20465;-91
2023/07/03 06:02:46;;;;;;;20.83;19.33;;;30.80;99.90;;;;;;5078402;28;20020;-94
2023/07/03 06:05:14;;;;;;;21.58;19.42;;;31.00;99.90;;;;;;5077499;28;20028;-92
2023/07/03 06:07:44;;;;;;;20.88;19.17;;;30.80;99.90;;;;;;5078526;28;20039;-94
2023/07/03 06:10:12;;;;;;;21.50;19.45;;;31.00;99.90;;;;;;5078181;28;20024;-93
2023/07/03 06:12:43;;;;;;;21.83;20.02;;;31.40;99.90;;;;;;5078185;28;20032;-92
2023/07/03 06:15:13;;;;;;;23.65;21.45;;;31.00;99.90;;;;;;5077884;28;20048;-93
2023/07/03 06:17:42;;;;;;;21.35;19.58;;;30.80;99.90;;;;;;5077890;28;20047;-92
2023/07/03 06:20:12;;;;;;;21.65;19.90;;;30.70;99.90;;;;;;5077694;28;20028;-95
2023/07/03 06:22:42;;;;;;;22.60;20.23;;;31.20;99.90;;;;;;5077783;28;20111;-93
2023/07/03 06:25:10;;;;;;;22.65;20.88;;;31.70;99.90;;;;;;5094654;28;20024;-94
2023/07/03 06:27:40;;;;;;;22.40;20.33;;;31.70;99.90;;;;;;5077992;28;20028;-93
2023/07/03 06:30:10;;;;;;;22.13;20.13;;;31.70;99.90;;;;;;5078166;28;20020;-94
2023/07/03 06:32:37;;;;;;;21.02;19.50;;;31.30;99.90;;;;;;5077929;28;20358;-94
2023/07/03 06:35:06;;;;;;;21.83;20.08;;;31.30;99.90;;;;;;5077701;28;20054;-93
2023/07/03 06:37:34;;;;;;;21.95;20.15;;;30.70;99.90;;;;;;5077119;28;20085;-94
2023/07/03 06:40:18;;;;;;;21.50;19.80;;;31.10;99.90;;;;;;5082270;28;20094;-94
2023/07/03 06:43:03;;;;;;;;;;;;;;;;;;;;;
2023/07/03 06:49:45;;;;;;;21.38;19.77;;;30.40;99.90;;;;;;5053620;28;20089;-93
2023/07/03 06:52:15;;;;;;;20.92;19.35;;;29.50;99.90;;;;;;5020227;28;20029;-95
2023/07/03 06:54:42;;;;;;;21.67;19.77;;;30.10;99.90;;;;;;5019927;28;20033;-94
2023/07/03 06:57:09;;;;;;;21.83;20.15;;;30.60;99.90;;;;;;5019563;28;20040;-93
2023/07/03 06:59:39;;;;;;;21.95;20.25;;;31.20;99.90;;;;;;5036262;28;20033;-94
2023/07/03 07:02:06;;;;;;;22.73;20.83;;;31.60;99.90;;;;;;5036221;28;20932;-93
2023/07/03 07:04:39;;;;;;;22.85;21.25;;;32.00;99.90;;;;;;5036525;28;20407;-93
2023/07/03 07:07:07;;;;;;;22.75;21.05;;;32.60;99.90;;;;;;5036287;28;20120;-94
2023/07/03 07:09:34;;;;;;;22.75;20.63;;;32.40;99.90;;;;;;5036328;28;20033;-94
2023/07/03 07:12:04;;;;;;;22.23;20.45;;;31.70;99.90;;;;;;5037601;28;20174;-94
2023/07/03 07:14:34;;;;;;;22.70;21.13;;;31.40;99.90;;;;;;5055500;28;20016;-93
2023/07/03 07:17:08;;;;;;;22.58;20.98;;;31.80;99.90;;;;;;5045003;22;20045;-93
2023/07/03 07:19:35;;;;;;;;;;;32.20;99.90;;;;;;5190168;22;20056;-92
2023/07/03 07:22:01;;;;;;;22.00;20.48;;;32.20;99.90;;;;;;5057502;28;20023;-94
2023/07/03 07:24:28;;;;;;;22.83;21.33;;;32.10;99.90;;;;;;5056605;28;20112;-93
2023/07/03 08:39:12;;;;;;;24.55;22.60;;;32.00;99.90;;;;;;5332038;23;20083;-82
2023/07/03 08:41:53;;;;;;;23.27;21.63;;;31.90;99.90;;;;;;4900620;29;20055;-82
2023/07/03 08:44:19;;;;;;;23.60;21.80;;;31.50;99.90;;;;;;4885121;29;20042;-82
2023/07/03 08:46:47;;;;;;;23.77;22.00;;;31.50;99.90;;;;;;4867900;29;20036;-83
2023/07/03 08:49:18;;;;;;;23.58;21.77;;;31.90;99.90;;;;;;4912007;29;20063;-83
2023/07/03 08:51:46;;;;;;;23.85;22.13;;;31.60;99.90;;;;;;4881401;29;20557;-81
2023/07/03 08:54:27;;;;;;;23.02;21.45;;;31.60;99.90;;;;;;4901545;29;20036;-82
2023/07/03 08:56:56;;;;;;;23.88;22.25;;;32.30;99.90;;;;;;4884846;29;20084;-83
2023/07/03 08:59:23;;;;;;;23.38;21.75;;;32.50;99.90;;;;;;4881496;29;20028;-81
2023/07/03 09:02:10;;;;;;;23.38;21.58;;;32.50;99.90;;;;;;4888848;29;20046;-81
2023/07/03 09:04:50;;;;;;;22.48;20.98;;;32.10;99.90;;;;;;4887258;29;20040;-73
2023/07/03 09:07:44;;;;;;;22.70;21.02;;;31.70;99.90;;;;;;4894723;29;20056;-79
2023/07/03 09:10:32;;;;;;;23.83;21.52;;;31.70;99.90;;;;;;4894484;29;20035;-77
2023/07/03 09:13:13;;;;;;;22.95;21.15;;;31.80;99.90;;;;;;4892672;29;20048;-77
2023/07/03 09:15:58;;;;;;;22.73;21.00;;;32.20;99.90;;;;;;4891916;29;20039;-81
2023/07/03 09:18:28;;;;;;;;;;;32.40;99.90;;;;;;4866297;29;20028;-71
2023/07/03 09:21:00;;;;;;;23.02;21.00;;;32.50;99.90;;;;;;4866624;29;19991;-93
2023/07/03 09:23:38;;;;;;;22.98;21.30;;;32.20;99.90;;;;;;4867637;29;20057;-91
2023/07/03 09:26:14;;;;;;;22.70;20.98;;;31.90;99.90;;;;;;4866765;29;20059;-93
2023/07/03 09:28:42;;;;;;;22.33;20.75;;;32.00;99.90;;;;;;4880903;29;20033;-74
2023/07/03 09:31:08;;;;;;;23.08;21.40;;;32.40;99.90;;;;;;4900506;29;20025;-76
2023/07/03 09:33:35;;;;;;;23.30;21.42;;;32.20;99.90;;;;;;4883569;29;20040;-73
2023/07/03 09:36:23;;;;;;;22.85;21.02;;;31.90;99.90;;;;;;4899365;29;20107;-91
2023/07/03 09:38:50;;;;;;;23.50;21.67;;;31.50;99.90;;;;;;4863269;29;20410;-86
2023/07/03 09:41:29;;;;;;;24.45;22.58;;;31.60;99.90;;;;;;4878220;29;20052;-84
2023/07/03 09:43:56;;;;;;;23.52;21.73;;;31.50;99.90;;;;;;4867182;29;20036;-86
2023/07/03 09:46:24;;;;;;;22.80;21.20;;;31.50;99.90;;;;;;4863510;29;20619;-90
2023/07/03 09:48:51;;;;;;;23.27;21.50;;;31.50;99.90;;;;;;4870469;29;20036;-88
2023/07/03 09:51:28;;;;;;;23.15;21.48;;;31.60;99.90;;;;;;4869291;29;20490;-86
2023/07/03 09:53:57;;;;;;;22.52;20.92;;;31.50;99.90;;;;;;4865512;29;20029;-83
2023/07/03 09:56:28;;;;;;;23.15;21.35;;;31.70;99.90;;;;;;4890490;29;20029;-87
2023/07/03 09:59:02;;;;;;;23.90;22.15;;;31.80;99.90;;;;;;4968624;24;20061;-92
2023/07/03 10:01:32;;;;;;;23.17;21.38;;;31.30;99.90;;;;;;4852614;29;20422;-92
2023/07/03 10:04:11;;;;;;;23.95;22.15;;;31.30;99.90;;;;;;4853422;29;20037;-93
2023/07/03 10:07:07;;;;;;;23.27;21.73;;;31.40;99.90;;;;;;4834484;29;20459;-92
2023/07/03 10:09:39;;;;;;;23.60;21.85;;;31.60;99.90;;;;;;4832390;29;20029;-92
2023/07/03 10:12:10;;;;;;;23.17;21.58;;;31.60;99.90;;;;;;4863622;29;20495;-93
2023/07/03 10:14:53;;;;;;;23.52;21.73;;;31.40;99.90;;;;;;4865592;29;20081;-93
2023/07/03 10:17:32;;;;;;;22.35;20.55;;;31.40;99.90;;;;;;4850322;29;20040;-94
2023/07/03 10:20:08;;;;;;;23.48;21.65;;;31.00;99.90;;;;;;4851794;29;20108;-92
2023/07/03 10:22:35;;;;;;;23.23;21.52;;;31.00;99.90;;;;;;4847207;29;20041;-95
2023/07/03 10:25:05;;;;;;;23.15;21.45;;;30.80;99.90;;;;;;4846913;29;20551;-93
2023/07/03 10:27:34;;;;;;;23.80;21.90;;;30.60;99.90;;;;;;4847126;29;20041;-93
2023/07/03 10:30:05;;;;;;;23.38;21.55;;;30.90;99.90;;;;;;4847461;29;20037;-94
2023/07/03 10:32:34;;;;;;;23.63;21.75;;;31.20;99.90;;;;;;4847751;29;20041;-94
2023/07/03 10:35:13;;;;;;;23.10;21.10;;;31.20;99.90;;;;;;4864376;29;20105;-92
2023/07/03 10:38:11;;;;;;;21.90;20.20;;;31.10;99.90;;;;;;4855427;29;20124;-91
2023/07/03 10:40:57;;;;;;;22.15;20.50;;;31.20;99.90;;;;;;4849073;29;20038;-92
2023/07/03 10:43:30;;;;;;;22.67;21.08;;;30.90;99.90;;;;;;4880509;29;20033;-93
2023/07/03 10:46:02;;;;;;;23.80;21.90;;;31.00;99.90;;;;;;4849877;29;20588;-93
2023/07/03 10:48:33;;;;;;;23.52;21.77;;;31.40;99.90;;;;;;4849671;29;20153;-92
2023/07/03 10:51:25;;;;;;;24.75;22.73;;;31.50;99.90;;;;;;4847814;29;20068;-92
2023/07/03 10:54:02;;;;;;;23.48;21.67;;;31.80;99.90;;;;;;4832284;29;20044;-93
2023/07/03 10:56:48;;;;;;;22.98;21.35;;;31.80;99.90;;;;;;4832660;29;20105;-93
2023/07/03 10:59:25;;;;;;;23.58;21.73;;;31.60;99.90;;;;;;4834596;29;20049;-91
2023/07/03 11:02:15;;;;;;;22.67;20.98;;;31.40;99.90;;;;;;4850537;29;20114;-93
2023/07/03 11:05:09;;;;;;;23.23;21.52;;;31.20;99.90;;;;;;4850808;29;20033;-92
2023/07/03 11:08:00;;;;;;;23.17;21.55;;;31.20;99.90;;;;;;4852366;29;20025;-91
2023/07/03 11:10:33;;;;;;;23.75;22.02;;;31.10;99.90;;;;;;4857510;29;20089;-92
2023/07/03 11:13:14;;;;;;;23.33;21.55;;;30.90;99.90;;;;;;4852663;29;20043;-92
2023/07/03 11:16:12;;;;;;;23.38;21.67;;;31.00;99.90;;;;;;4858628;29;20032;-91
2023/07/03 11:18:50;;;;;;;22.90;21.27;;;30.80;99.90;;;;;;4855633;29;21804;-91
2023/07/03 11:21:42;;;;;;;22.77;21.17;;;31.10;99.90;;;;;;4869359;29;20053;-92
2023/07/03 11:24:43;;;;;;;23.38;21.55;;;31.10;99.90;;;;;;4851111;29;20046;-91
2023/07/03 11:27:48;;;;;;;22.80;21.00;;;31.20;99.90;;;;;;4834374;29;20117;-93
2023/07/03 11:30:16;;;;;;;23.13;21.17;;;31.20;99.90;;;;;;4831293;29;20033;-91
2023/07/03 11:32:46;;;;;;;22.90;21.30;;;31.30;99.90;;;;;;4831137;29;20029;-91
2023/07/03 11:35:14;;;;;;;22.38;20.77;;;31.00;99.90;;;;;;4831007;29;20154;-91
2023/07/03 11:37:41;;;;;;;22.58;20.88;;;31.40;99.90;;;;;;4830665;29;20036;-93
2023/07/03 11:41:00;;;;;;;22.42;20.88;;;31.50;99.90;;;;;;4830564;29;20038;-91
2023/07/03 11:43:33;;;;;;;23.50;21.65;;;31.30;99.90;;;;;;4832268;29;20034;-92
2023/07/03 11:45:59;;;;;;;22.27;20.67;;;31.30;99.90;;;;;;4845649;29;20053;-92
2023/07/03 11:48:40;;;;;;;22.92;21.05;;;31.20;99.90;;;;;;4846074;29;20029;-91
2023/07/03 11:51:13;;;;;;;22.35;20.75;;;31.20;99.90;;;;;;4863286;29;20040;-93
2023/07/03 11:56:59;;;;;;;23.33;21.65;;;31.20;99.90;;;;;;4846016;29;20515;-90
2023/07/03 11:59:30;;;;;;;22.45;20.75;;;31.10;99.90;;;;;;4865165;29;20049;-90
2023/07/03 12:02:41;;;;;;;22.48;20.88;;;31.20;99.90;;;;;;4851811;29;20045;-91
2023/07/03 12:05:09;;;;;;;22.85;21.15;;;31.10;99.90;;;;;;4849357;29;20037;-91
2023/07/03 12:07:36;;;;;;;23.25;21.55;;;30.80;99.90;;;;;;4867696;29;20025;-92
2023/07/03 12:10:17;;;;;;;22.88;21.17;;;30.90;99.90;;;;;;4867744;29;20044;-90
2023/07/03 12:13:05;;;;;;;23.33;21.50;;;31.10;99.90;;;;;;4852200;29;20036;-91
2023/07/03 12:15:31;;;;;;;23.35;21.65;;;31.40;99.90;;;;;;4852651;29;20487;-91
2023/07/03 12:18:03;;;;;;;23.35;21.65;;;31.20;99.90;;;;;;4852474;29;20036;-94
2023/07/03 12:20:33;;;;;;;24.70;22.50;;;31.40;99.90;;;;;;4852058;29;20037;-92
2023/07/03 12:23:02;;;;;;;23.90;22.30;;;31.30;99.90;;;;;;4851884;29;20044;-91
2023/07/03 12:25:29;;;;;;;23.70;21.85;;;31.40;99.90;;;;;;4852054;29;20059;-89
2023/07/03 12:28:09;;;;;;;23.85;21.95;;;31.20;99.90;;;;;;4853048;29;20029;-95
2023/07/03 12:30:37;;;;;;;24.52;22.73;;;31.10;99.90;;;;;;4869443;29;20486;-94
2023/07/03 12:33:03;;;;;;;24.10;22.20;;;31.20;99.90;;;;;;4870431;29;20036;-95
2023/07/03 12:35:44;;;;;;;23.17;21.60;;;31.50;99.90;;;;;;4871125;29;20108;-93
2023/07/03 12:38:14;;;;;;;24.02;22.10;;;31.10;99.90;;;;;;4888883;29;20029;-94
2023/07/03 12:40:45;;;;;;;23.77;22.15;;;31.30;99.90;;;;;;4887110;29;20048;-93
2023/07/03 12:43:16;;;;;;;24.10;22.40;;;31.50;99.90;;;;;;4871031;29;20096;-91
2023/07/03 12:45:49;;;;;;;23.95;22.02;;;31.50;99.90;;;;;;4876643;29;20037;-92
2023/07/03 12:48:21;;;;;;;23.75;21.95;;;31.50;99.90;;;;;;4877169;29;20036;-93
2023/07/03 12:50:56;;;;;;;23.92;22.17;;;31.30;99.90;;;;;;4873033;29;20033;-94
2023/07/03 12:53:24;;;;;;;23.83;22.20;;;31.20;99.90;;;;;;4871921;29;20095;-93
2023/07/03 12:56:09;;;;;;;24.83;22.92;;;31.20;99.90;;;;;;4871424;29;20051;-94
2023/07/03 12:58:37;;;;;;;24.30;22.40;;;31.00;99.90;;;;;;4868933;29;20072;-93
2023/07/03 13:01:06;;;;;;;24.08;22.00;;;31.10;99.90;;;;;;4853101;29;20041;-92
2023/07/03 13:03:41;;;;;;;24.00;22.17;;;30.90;99.90;;;;;;4854030;29;20475;-91
2023/07/03 13:06:23;;;;;;;23.42;21.73;;;30.90;99.90;;;;;;4886538;29;20024;-91
2023/07/03 13:08:54;;;;;;;23.63;21.80;;;30.60;99.90;;;;;;4885870;29;20035;-91
2023/07/03 13:11:46;;;;;;;23.80;21.67;;;30.70;99.90;;;;;;4892811;29;20043;-94
2023/07/03 13:14:26;;;;;;;23.45;21.73;;;30.80;99.90;;;;;;4884205;29;20040;-95
2023/07/03 13:17:42;;;;;;;23.75;22.05;;;31.10;99.90;;;;;;4873325;29;20032;-95
2023/07/03 13:20:20;;;;;;;24.48;22.55;;;30.90;99.90;;;;;;4901511;29;20036;-93
2023/07/03 13:22:49;;;;;;;24.17;22.27;;;30.90;99.90;;;;;;4881382;29;20096;-93
2023/07/03 13:25:35;;;;;;;24.23;22.33;;;30.80;99.90;;;;;;4876043;29;20029;-95
2023/07/03 13:28:11;;;;;;;23.65;21.88;;;31.20;99.90;;;;;;4876935;29;20033;-94
2023/07/03 13:30:41;;;;;;;23.55;21.77;;;31.30;99.90;;;;;;4858916;29;20034;-94
2023/07/03 13:33:13;;;;;;;23.27;21.58;;;31.20;99.90;;;;;;4840769;29;20033;-92
2023/07/03 13:35:48;;;;;;;23.55;21.63;;;31.10;99.90;;;;;;4863774;29;20041;-93
2023/07/03 13:38:26;;;;;;;22.70;21.00;;;31.10;99.90;;;;;;4835161;29;20025;-94
2023/07/03 13:40:54;;;;;;;23.10;21.38;;;30.80;99.90;;;;;;4863405;29;20100;-95
2023/07/03 13:43:30;;;;;;;23.55;21.70;;;30.90;99.90;;;;;;4847815;29;20235;-92
2023/07/03 13:45:57;;;;;;;23.52;21.90;;;30.90;99.90;;;;;;4848105;29;20057;-92
2023/07/03 13:48:26;;;;;;;23.52;21.60;;;30.70;99.90;;;;;;4832900;29;20101;-94
2023/07/03 13:50:54;;;;;;;23.10;21.30;;;30.70;99.90;;;;;;4885332;29;20111;-95
2023/07/03 13:53:22;;;;;;;24.02;22.13;;;30.90;99.90;;;;;;4869638;29;20491;-94
2023/07/03 13:55:50;;;;;;;23.45;21.85;;;31.00;99.90;;;;;;4869479;29;20029;-93
2023/07/03 13:58:16;;;;;;;24.00;21.92;;;31.00;99.90;;;;;;4868676;29;20050;-93
2023/07/03 14:00:43;;;;;;;24.02;22.08;;;30.90;99.90;;;;;;4884079;29;20041;-94
2023/07/03 14:03:13;;;;;;;23.92;22.02;;;31.00;99.90;;;;;;4869049;29;20363;-95
2023/07/03 14:05:40;;;;;;;24.15;22.25;;;31.10;99.90;;;;;;4914414;23;20022;-93
2023/07/03 14:08:06;;;;;;;23.98;22.13;;;31.10;99.90;;;;;;4853694;29;20051;-92
2023/07/03 14:10:34;;;;;;;23.27;21.67;;;30.90;99.90;;;;;;4884442;29;20028;-92
2023/07/03 14:13:09;;;;;;;23.95;22.10;;;30.70;99.90;;;;;;4888416;29;20474;-96
2023/07/03 14:15:37;;;;;;;23.45;21.67;;;30.90;99.90;;;;;;4903194;29;20028;-93
2023/07/03 14:18:04;;;;;;;23.45;21.75;;;31.00;99.90;;;;;;4887740;29;20107;-95
2023/07/03 14:20:33;;;;;;;23.65;21.90;;;30.90;99.90;;;;;;4890206;29;20036;-93
2023/07/03 14:23:00;;;;;;;22.60;21.10;;;30.80;99.90;;;;;;4872184;29;20029;-93
2023/07/03 14:25:27;;;;;;;23.42;21.65;;;30.50;99.90;;;;;;4865155;29;20498;-91
2023/07/03 14:27:54;;;;;;;23.25;21.55;;;30.60;99.90;;;;;;4866186;29;20043;-92
2023/07/03 14:30:20;;;;;;;22.92;21.23;;;30.50;99.90;;;;;;4850602;29;20108;-94
2023/07/03 14:32:47;;;;;;;23.67;21.75;;;30.80;99.90;;;;;;4865523;29;20029;-92
2023/07/03 14:35:13;;;;;;;23.42;21.70;;;30.90;99.90;;;;;;4865794;29;20036;-94
2023/07/03 14:37:40;;;;;;;22.60;20.98;;;30.80;99.90;;;;;;4865840;29;20062;-91
2023/07/03 14:40:07;;;;;;;23.80;21.83;;;30.90;99.90;;;;;;4865938;29;20558;-93
2023/07/03 14:42:33;;;;;;;23.25;21.55;;;30.90;99.90;;;;;;4865830;29;20093;-90
2023/07/03 14:44:59;;;;;;;23.33;21.83;;;30.90;99.90;;;;;;4865548;29;20436;-91
2023/07/03 14:47:26;;;;;;;24.13;22.33;;;31.00;99.90;;;;;;4867158;29;20554;-93
2023/07/03 14:49:52;;;;;;;23.52;21.83;;;31.10;99.90;;;;;;4866545;29;20499;-91
2023/07/03 14:52:19;;;;;;;23.23;21.52;;;30.90;99.90;;;;;;4864930;29;20391;-90
2023/07/03 14:54:49;;;;;;;24.13;22.33;;;30.70;99.90;;;;;;4865168;29;20033;-92
2023/07/03 14:57:15;;;;;;;23.80;22.00;;;30.60;99.90;;;;;;4865076;29;20561;-90
2023/07/03 14:59:43;;;;;;;23.92;22.23;;;30.60;99.90;;;;;;4865277;29;20025;-89
2023/07/03 15:02:10;;;;;;;24.42;22.63;;;30.70;99.90;;;;;;4848736;29;20045;-90
2023/07/03 15:04:36;;;;;;;24.65;22.85;;;30.70;99.90;;;;;;4884343;29;20024;-91
2023/07/03 15:07:02;;;;;;;24.17;22.48;;;30.30;99.90;;;;;;4887171;29;20056;-91
2023/07/03 15:09:28;;;;;;;24.77;22.80;;;30.60;99.90;;;;;;4901913;29;20087;-92
2023/07/03 15:11:55;;;;;;;24.50;22.80;;;30.60;99.90;;;;;;4886407;29;20024;-91
2023/07/03 15:14:22;;;;;;;24.75;22.85;;;30.80;99.90;;;;;;4886266;29;20398;-93
2023/07/03 15:16:48;;;;;;;24.40;22.60;;;30.80;99.90;;;;;;4886325;29;20087;-93
2023/07/03 15:19:15;;;;;;;24.48;22.60;;;30.70;99.90;;;;;;4886601;29;20118;-93
2023/07/03 15:21:41;;;;;;;23.40;21.80;;;30.60;99.90;;;;;;4885979;29;20044;-91
2023/07/03 15:24:09;;;;;;;23.95;22.15;;;30.50;99.90;;;;;;4886078;29;20031;-92
2023/07/03 15:26:37;;;;;;;23.92;22.13;;;30.60;99.90;;;;;;4886139;29;20028;-91
2023/07/03 15:29:04;;;;;;;24.13;22.40;;;30.40;99.90;;;;;;4898477;29;20032;-90
2023/07/03 15:31:30;;;;;;;23.77;22.10;;;30.30;99.90;;;;;;4867499;29;20032;-91
2023/07/03 15:33:56;;;;;;;23.67;21.90;;;30.30;99.90;;;;;;4867403;29;20052;-90
2023/07/03 15:36:22;;;;;;;23.77;21.88;;;30.30;99.90;;;;;;4867151;29;20035;-92
2023/07/03 15:38:49;;;;;;;23.67;21.98;;;30.10;99.90;;;;;;4898562;29;20056;-91
2023/07/03 15:41:17;;;;;;;24.00;22.40;;;30.10;99.90;;;;;;4870870;29;20032;-91
2023/07/03 15:43:43;;;;;;;24.73;22.80;;;30.10;99.90;;;;;;4868261;29;20032;-92
2023/07/03 15:46:18;;;;;;;24.15;22.33;;;30.40;99.90;;;;;;4868647;29;20059;-91
2023/07/03 15:48:47;;;;;;;24.38;22.70;;;30.50;99.90;;;;;;4867820;29;20045;-91
2023/07/03 15:51:15;;;;;;;24.50;22.70;;;30.60;99.90;;;;;;4872971;29;20048;-89
2023/07/03 15:53:43;;;;;;;25.08;23.27;;;30.50;99.90;;;;;;4963553;23;20048;-92
2023/07/03 15:56:15;;;;;;;25.33;23.35;;;30.50;99.90;;;;;;4891757;29;20013;-92
2023/07/03 15:58:44;;;;;;;25.27;23.33;;;30.50;99.90;;;;;;4891549;29;20030;-91
2023/07/03 16:01:14;;;;;;;24.25;22.38;;;30.30;99.90;;;;;;4872832;29;20021;-91
2023/07/03 16:03:40;;;;;;;25.17;23.20;;;30.20;99.90;;;;;;4876048;29;20021;-92
2023/07/03 16:06:13;;;;;;;25.45;23.27;;;30.10;99.90;;;;;;4891427;29;20035;-91
2023/07/03 16:08:41;;;;;;;23.98;22.27;;;30.10;99.90;;;;;;4922544;29;20023;-90
2023/07/03 16:11:10;;;;;;;24.42;22.48;;;30.10;99.90;;;;;;4921951;29;20032;-91
2023/07/03 16:13:37;;;;;;;26.27;24.05;;;30.10;99.90;;;;;;4890836;29;20021;-91
2023/07/03 16:16:07;;;;;;;25.55;23.65;;;30.00;99.90;;;;;;4891581;29;20013;-91
2023/07/03 16:18:34;;;;;;;25.40;23.30;;;29.80;99.90;;;;;;4907041;29;20028;-91
2023/07/03 16:21:02;;;;;;;25.77;23.83;;;29.70;99.90;;;;;;4922524;29;20029;-91
2023/07/03 16:23:32;;;;;;;25.35;23.52;;;29.90;99.90;;;;;;4906766;29;20025;-92
2023/07/03 16:26:00;;;;;;;24.80;23.10;;;29.60;99.90;;;;;;4888710;29;20031;-92
2023/07/03 16:28:29;;;;;;;24.80;22.58;;;29.60;99.90;;;;;;4887306;29;20030;-90
2023/07/03 16:31:14;;;;;;;25.15;23.25;;;29.70;99.90;;;;;;4921468;29;20021;-92
2023/07/03 16:33:43;;;;;;;24.98;22.70;;;29.70;99.90;;;;;;4919741;29;20021;-92
2023/07/03 16:36:17;;;;;;;24.17;22.48;;;29.50;99.90;;;;;;4875677;29;20066;-89
2023/07/03 16:39:02;;;;;;;24.63;22.58;;;29.60;99.90;;;;;;4883588;29;20037;-91
2023/07/03 16:41:33;;;;;;;24.27;22.38;;;29.60;99.90;;;;;;4897813;29;20058;-91
2023/07/03 16:44:00;;;;;;;24.17;22.17;;;29.60;99.90;;;;;;4897708;29;20025;-89
2023/07/03 16:46:27;;;;;;;25.15;23.23;;;29.60;99.90;;;;;;4897969;29;20490;-89
2023/07/03 16:48:55;;;;;;;23.90;22.17;;;29.50;99.90;;;;;;4901298;29;20036;-90
2023/07/03 16:51:24;;;;;;;24.60;22.75;;;29.40;99.90;;;;;;4869633;29;20056;-90
2023/07/03 16:53:50;;;;;;;24.27;22.38;;;29.20;99.90;;;;;;4901135;29;20052;-91
2023/07/03 16:56:23;;;;;;;24.15;22.13;;;29.00;99.90;;;;;;4869990;29;20036;-90
2023/07/03 16:58:51;;;;;;;25.33;23.23;;;29.00;99.90;;;;;;4885443;29;20037;-89
2023/07/03 17:01:23;;;;;;;23.95;22.25;;;29.00;99.90;;;;;;4900641;29;20040;-90
2023/07/03 17:03:51;;;;;;;24.73;22.88;;;29.00;99.90;;;;;;4885287;29;20032;-89
2023/07/03 17:06:24;;;;;;;24.08;22.17;;;29.00;99.90;;;;;;4869830;29;20123;-89
2023/07/03 17:08:51;;;;;;;;;;;28.80;99.90;;;;;;4901402;29;20033;-90
2023/07/03 17:11:21;;;;;;;23.23;21.45;;;28.70;99.90;;;;;;4888328;29;19967;-88
2023/07/03 17:13:48;;;;;;;23.08;21.35;;;28.40;99.90;;;;;;4903774;29;20032;-91
2023/07/03 17:16:15;;;;;;;24.10;22.17;;;28.30;99.90;;;;;;4903736;29;20040;-90
2023/07/03 17:18:42;;;;;;;23.20;21.38;;;28.40;99.90;;;;;;4903687;29;20044;-89
2023/07/03 17:21:09;;;;;;;23.50;21.70;;;28.30;99.90;;;;;;4887899;29;20088;-90
2023/07/03 17:23:35;;;;;;;23.70;21.70;;;28.20;99.90;;;;;;4905292;29;20062;-90